Time;durP1;ratioP1;P1;durP2;ratioP2;P2;SDS_P1;SDS_P2;PMS_P1;PMS_P2;Temp;Humidity;BMP_temperature;BMP_pressure;BME280_temperature;BME280_humidity;BME280_pressure;Samples;Min_cycle;Max_cycle;Signal;HPM_P1;HPM_P2
2024/04/03 00:00:54;;;;;;;3.57;1.10;;;;;;;;;;5097022;27;20666;-90
2024/04/03 00:03:22;;;;;;;2.73;0.90;;;;;;;;;;5097080;28;20187;-92
2024/04/03 00:05:49;;;;;;;2.10;0.77;;;;;;;;;;5096945;28;20214;-91
2024/04/03 00:08:15;;;;;;;2.73;0.87;;;;;;;;;;5096928;28;20202;-92
2024/04/03 00:10:43;;;;;;;2.40;0.90;;;;;;;;;;5095637;28;20242;-90
2024/04/03 00:13:09;;;;;;;1.80;0.83;;;;;;;;;;5092108;28;20579;-90
2024/04/03 00:15:38;;;;;;;3.60;0.90;;;;;;;;;;5076389;28;20233;-91
2024/04/03 00:18:04;;;;;;;3.13;0.87;;;;;;;;;;5076769;28;20199;-91
2024/04/03 00:20:34;;;;;;;3.03;0.80;;;;;;;;;;5076376;28;20184;-92
2024/04/03 00:23:00;;;;;;;2.87;0.90;;;;;;;;;;5076835;28;20591;-91
2024/04/03 00:25:28;;;;;;;1.97;0.80;;;;;;;;;;5076517;28;20735;-91
2024/04/03 00:27:54;;;;;;;2.00;0.60;;;;;;;;;;5076432;28;20729;-93
2024/04/03 00:30:21;;;;;;;2.90;0.60;;;;;;;;;;5076683;28;20187;-92
2024/04/03 00:32:48;;;;;;;2.33;0.80;;;;;;;;;;5076158;28;20266;-90
2024/04/03 00:35:15;;;;;;;2.10;0.70;;;;;;;;;;5075888;28;20289;-91
2024/04/03 00:37:43;;;;;;;2.80;0.83;;;;;;;;;;5076421;28;20253;-90
2024/04/03 00:40:11;;;;;;;1.50;0.53;;;;;;;;;;5076109;28;20229;-90
2024/04/03 00:42:37;;;;;;;1.50;0.47;;;;;;;;;;5076134;28;20187;-91
2024/04/03 00:45:04;;;;;;;2.27;0.70;;;;;;;;;;5076011;28;20203;-91
2024/04/03 00:47:31;;;;;;;2.40;0.60;;;;;;;;;;5076228;28;20199;-90
2024/04/03 00:49:58;;;;;;;1.70;0.70;;;;;;;;;;5075916;28;20207;-92
2024/04/03 00:52:25;;;;;;;2.60;0.80;;;;;;;;;;5075852;28;20648;-91
2024/04/03 00:54:54;;;;;;;4.00;0.70;;;;;;;;;;5075840;28;20703;-91
2024/04/03 00:57:20;;;;;;;3.03;0.80;;;;;;;;;;5075679;28;20187;-91
2024/04/03 00:59:47;;;;;;;2.33;0.70;;;;;;;;;;5075964;28;20237;-92
2024/04/03 01:02:14;;;;;;;3.80;0.83;;;;;;;;;;5075862;28;20195;-91
2024/04/03 01:04:41;;;;;;;1.63;0.70;;;;;;;;;;5075521;28;20225;-92
2024/04/03 01:07:08;;;;;;;2.70;0.90;;;;;;;;;;5075786;28;20199;-91
2024/04/03 01:09:35;;;;;;;2.77;0.70;;;;;;;;;;5075565;28;20203;-91
2024/04/03 01:12:05;;;;;;;3.90;0.90;;;;;;;;;;5075668;28;20581;-90
2024/04/03 01:14:31;;;;;;;5.00;0.80;;;;;;;;;;5092417;28;20714;-92
2024/04/03 01:16:59;;;;;;;3.83;1.00;;;;;;;;;;5095882;28;20187;-92
2024/04/03 01:19:25;;;;;;;2.83;0.80;;;;;;;;;;5095657;28;20248;-91
2024/04/03 01:21:52;;;;;;;4.60;1.17;;;;;;;;;;5095914;28;20202;-91
2024/04/03 01:24:23;;;;;;;4.43;1.03;;;;;;;;;;5095580;28;20643;-92
2024/04/03 01:26:50;;;;;;;5.87;1.00;;;;;;;;;;5095301;28;20203;-91
2024/04/03 01:29:16;;;;;;;3.70;0.90;;;;;;;;;;5095676;28;20237;-91
2024/04/03 01:31:46;;;;;;;6.77;1.00;;;;;;;;;;5095353;28;20202;-92
2024/04/03 01:34:12;;;;;;;6.63;1.10;;;;;;;;;;5095000;28;20228;-91
2024/04/03 01:36:39;;;;;;;3.80;1.00;;;;;;;;;;5095738;28;20611;-92
2024/04/03 01:39:05;;;;;;;4.00;0.90;;;;;;;;;;5095575;28;20284;-92
2024/04/03 01:41:34;;;;;;;7.43;0.97;;;;;;;;;;5095512;28;20234;-91
2024/04/03 01:44:00;;;;;;;5.97;1.30;;;;;;;;;;5095357;28;20202;-92
2024/04/03 01:46:27;;;;;;;4.43;1.20;;;;;;;;;;5095310;28;20637;-91
2024/04/03 01:48:54;;;;;;;7.17;1.23;;;;;;;;;;5094699;28;20234;-92
2024/04/03 01:51:21;;;;;;;7.33;1.47;;;;;;;;;;5094329;28;20210;-91
2024/04/03 01:53:51;;;;;;;8.20;1.50;;;;;;;;;;5094838;27;20222;-91
2024/04/03 01:56:17;;;;;;;7.53;1.47;;;;;;;;;;5095347;28;20195;-91
2024/04/03 01:58:46;;;;;;;8.80;1.37;;;;;;;;;;5095088;28;20206;-92
2024/04/03 02:01:12;;;;;;;3.87;1.10;;;;;;;;;;5095277;28;20186;-91
2024/04/03 02:03:39;;;;;;;7.17;1.50;;;;;;;;;;5094378;28;20187;-92
2024/04/03 02:06:05;;;;;;;8.30;1.80;;;;;;;;;;5094838;27;20335;-92
2024/04/03 02:08:33;;;;;;;5.97;1.33;;;;;;;;;;5094948;28;20198;-91
2024/04/03 02:10:59;;;;;;;8.93;1.60;;;;;;;;;;5094871;28;20182;-92
2024/04/03 02:13:26;;;;;;;6.17;1.23;;;;;;;;;;5092300;28;22033;-91
2024/04/03 02:15:54;;;;;;;7.10;1.43;;;;;;;;;;5089211;28;20248;-93
2024/04/03 02:18:22;;;;;;;7.80;1.77;;;;;;;;;;5074192;28;20187;-92
2024/04/03 02:20:48;;;;;;;8.40;1.90;;;;;;;;;;5074302;28;20539;-93
2024/04/03 02:23:15;;;;;;;6.70;1.70;;;;;;;;;;5074733;28;20199;-92
2024/04/03 02:25:41;;;;;;;8.40;1.63;;;;;;;;;;5074211;28;20614;-93
2024/04/03 02:28:09;;;;;;;10.13;1.93;;;;;;;;;;5074047;28;20257;-92
2024/04/03 02:30:35;;;;;;;4.23;1.80;;;;;;;;;;5073867;28;20199;-92
2024/04/03 02:33:04;;;;;;;7.73;2.20;;;;;;;;;;5074043;28;20249;-92
2024/04/03 02:35:30;;;;;;;10.27;2.00;;;;;;;;;;5073924;28;20233;-92
2024/04/03 02:37:58;;;;;;;9.23;1.67;;;;;;;;;;5074340;28;20194;-92
2024/04/03 02:40:24;;;;;;;7.93;1.87;;;;;;;;;;5073943;28;20199;-92
2024/04/03 02:42:51;;;;;;;7.83;2.10;;;;;;;;;;5074000;28;20286;-92
2024/04/03 02:45:17;;;;;;;5.10;1.70;;;;;;;;;;5073876;28;20221;-91
2024/04/03 02:47:45;;;;;;;5.60;1.60;;;;;;;;;;5072143;28;20201;-92
2024/04/03 02:50:12;;;;;;;3.73;1.60;;;;;;;;;;5073720;28;20241;-91
2024/04/03 02:52:40;;;;;;;8.13;1.63;;;;;;;;;;5074032;28;20226;-91
2024/04/03 02:55:06;;;;;;;6.97;1.70;;;;;;;;;;5073599;28;20268;-91
2024/04/03 02:57:33;;;;;;;7.87;1.67;;;;;;;;;;5073399;28;20199;-90
2024/04/03 02:59:59;;;;;;;10.93;1.90;;;;;;;;;;5073715;28;20668;-91
2024/04/03 03:02:27;;;;;;;6.83;1.63;;;;;;;;;;5073037;28;20203;-91
2024/04/03 03:04:53;;;;;;;8.73;2.20;;;;;;;;;;5073422;28;20648;-91
2024/04/03 03:07:22;;;;;;;9.50;1.83;;;;;;;;;;5073636;28;20229;-92
2024/04/03 03:09:48;;;;;;;8.83;1.97;;;;;;;;;;5073351;28;20679;-91
2024/04/03 03:12:15;;;;;;;7.23;1.87;;;;;;;;;;5073259;28;20290;-92
2024/04/03 03:14:41;;;;;;;9.17;1.80;;;;;;;;;;5091081;28;20218;-91
2024/04/03 03:17:09;;;;;;;8.93;2.20;;;;;;;;;;5092743;28;20280;-91
2024/04/03 03:19:35;;;;;;;11.43;2.00;;;;;;;;;;5093615;28;20667;-91
2024/04/03 03:22:02;;;;;;;7.37;1.87;;;;;;;;;;5093603;28;20203;-89
2024/04/03 03:24:30;;;;;;;7.53;1.67;;;;;;;;;;5093473;28;20279;-90
2024/04/03 03:26:57;;;;;;;9.83;2.27;;;;;;;;;;5093325;28;20233;-91
2024/04/03 03:29:23;;;;;;;7.73;1.87;;;;;;;;;;5093425;28;20239;-91
2024/04/03 03:31:51;;;;;;;12.50;1.93;;;;;;;;;;5093472;28;20671;-90
2024/04/03 03:34:17;;;;;;;9.77;1.70;;;;;;;;;;5093273;28;20710;-90
2024/04/03 03:36:44;;;;;;;10.33;2.20;;;;;;;;;;5093630;28;20296;-91
2024/04/03 03:39:12;;;;;;;8.70;2.10;;;;;;;;;;5093528;28;20621;-91
2024/04/03 03:41:40;;;;;;;11.80;2.23;;;;;;;;;;5093350;28;20241;-91
2024/04/03 03:44:07;;;;;;;12.13;2.00;;;;;;;;;;5093612;28;20240;-90
2024/04/03 03:46:34;;;;;;;8.47;2.07;;;;;;;;;;5093476;28;20271;-91
2024/04/03 03:54:31;;;;;;;12.27;2.97;;;;;;;;;;5093143;28;20611;-91
2024/04/03 03:57:00;;;;;;;14.57;2.10;;;;;;;;;;5093063;28;20182;-91
2024/04/03 03:59:27;;;;;;;16.43;2.60;;;;;;;;;;5093168;28;20221;-90
2024/04/03 04:01:54;;;;;;;13.33;2.30;;;;;;;;;;5093462;28;20243;-90
2024/04/03 04:04:22;;;;;;;12.50;2.20;;;;;;;;;;5093239;28;20315;-91
2024/04/03 04:06:48;;;;;;;16.50;2.70;;;;;;;;;;5093267;28;20198;-91
2024/04/03 04:09:15;;;;;;;16.80;2.20;;;;;;;;;;5092956;28;20248;-89
2024/04/03 04:11:42;;;;;;;12.40;2.30;;;;;;;;;;5093056;28;20252;-91
2024/04/03 04:14:10;;;;;;;18.53;2.93;;;;;;;;;;5080078;28;20215;-90
2024/04/03 04:16:36;;;;;;;22.13;3.73;;;;;;;;;;5076840;28;20219;-91
2024/04/03 04:19:04;;;;;;;17.47;2.83;;;;;;;;;;5076765;28;20227;-90
2024/04/03 04:21:30;;;;;;;14.23;3.10;;;;;;;;;;5076293;28;20231;-90
2024/04/03 04:23:57;;;;;;;19.40;2.57;;;;;;;;;;5076324;28;20302;-91
2024/04/03 04:26:23;;;;;;;15.90;2.80;;;;;;;;;;5076483;28;20223;-90
2024/04/03 04:28:51;;;;;;;15.30;2.70;;;;;;;;;;5076220;28;20187;-91
2024/04/03 04:31:18;;;;;;;16.63;2.40;;;;;;;;;;5075201;28;20286;-91
2024/04/03 04:33:46;;;;;;;14.67;2.83;;;;;;;;;;5076349;28;20767;-90
2024/04/03 04:36:12;;;;;;;17.23;2.90;;;;;;;;;;5075947;28;20195;-91
2024/04/03 04:38:39;;;;;;;19.63;3.23;;;;;;;;;;5076600;28;20188;-90
2024/04/03 04:41:06;;;;;;;20.93;3.57;;;;;;;;;;5076187;28;20195;-90
2024/04/03 04:43:33;;;;;;;15.63;3.10;;;;;;;;;;5076162;28;20188;-90
2024/04/03 04:46:01;;;;;;;20.80;3.63;;;;;;;;;;5076418;28;20253;-90
2024/04/03 04:48:31;;;;;;;23.10;3.53;;;;;;;;;;5076038;28;20652;-90
2024/04/03 04:50:58;;;;;;;21.80;3.43;;;;;;;;;;5076114;28;20206;-90
2024/04/03 04:53:25;;;;;;;27.00;4.13;;;;;;;;;;5075663;28;20199;-90
2024/04/03 04:55:53;;;;;;;21.27;3.83;;;;;;;;;;5075406;28;20300;-89
2024/04/03 04:58:20;;;;;;;28.27;3.70;;;;;;;;;;5075800;28;20566;-90
2024/04/03 05:00:46;;;;;;;30.03;4.50;;;;;;;;;;5075695;28;20625;-90
2024/04/03 05:03:13;;;;;;;30.80;4.10;;;;;;;;;;5075744;28;20223;-90
2024/04/03 05:05:41;;;;;;;28.93;4.80;;;;;;;;;;5074661;28;20573;-83
2024/04/03 05:08:10;;;;;;;32.23;4.77;;;;;;;;;;5073568;28;20207;-83
2024/04/03 05:10:36;;;;;;;34.00;5.03;;;;;;;;;;5071200;28;20206;-82
2024/04/03 05:13:04;;;;;;;36.43;4.63;;;;;;;;;;5077737;28;20198;-83
2024/04/03 05:15:31;;;;;;;37.40;5.00;;;;;;;;;;5093845;28;20230;-84
2024/04/03 05:17:59;;;;;;;30.87;4.67;;;;;;;;;;5093238;28;20202;-83
2024/04/03 05:20:26;;;;;;;29.43;5.30;;;;;;;;;;5093664;28;20214;-84
2024/04/03 05:22:55;;;;;;;35.40;5.43;;;;;;;;;;5093085;28;20632;-82
2024/04/03 05:25:21;;;;;;;37.30;5.97;;;;;;;;;;5092837;28;20226;-86
2024/04/03 05:27:48;;;;;;;41.23;5.03;;;;;;;;;;5092459;28;20230;-84
2024/04/03 05:30:15;;;;;;;39.57;5.23;;;;;;;;;;5093385;28;20237;-85
2024/04/03 05:32:42;;;;;;;34.53;5.03;;;;;;;;;;5093604;28;20202;-84
2024/04/03 05:35:08;;;;;;;42.87;6.50;;;;;;;;;;5093204;28;20307;-83
2024/04/03 05:37:35;;;;;;;35.90;5.87;;;;;;;;;;5093059;28;20285;-85
2024/04/03 05:40:05;;;;;;;37.47;5.20;;;;;;;;;;5092511;28;20244;-86
2024/04/03 05:42:32;;;;;;;38.80;5.40;;;;;;;;;;5093734;28;20186;-85
2024/04/03 05:44:59;;;;;;;42.97;5.30;;;;;;;;;;5093224;28;20199;-84
2024/04/03 05:47:26;;;;;;;32.33;5.07;;;;;;;;;;5093113;28;20319;-84
2024/04/03 05:49:53;;;;;;;42.93;6.47;;;;;;;;;;5091817;28;20222;-85
2024/04/03 05:52:21;;;;;;;31.97;5.70;;;;;;;;;;5093449;28;20202;-85
2024/04/03 05:54:47;;;;;;;34.47;6.03;;;;;;;;;;5093490;28;20734;-86
2024/04/03 05:57:17;;;;;;;37.10;5.57;;;;;;;;;;5093835;28;20206;-87
2024/04/03 05:59:44;;;;;;;39.43;6.37;;;;;;;;;;5093554;28;20542;-85
2024/04/03 06:02:11;;;;;;;38.63;6.40;;;;;;;;;;5100437;28;20195;-86
2024/04/03 06:04:37;;;;;;;41.00;5.93;;;;;;;;;;5092867;28;20198;-86
2024/04/03 06:07:06;;;;;;;41.47;6.73;;;;;;;;;;5093269;28;20194;-87
2024/04/03 06:09:32;;;;;;;32.27;5.20;;;;;;;;;;5092455;28;20217;-85
2024/04/03 06:11:59;;;;;;;39.50;5.63;;;;;;;;;;5092775;28;20202;-85
2024/04/03 06:14:27;;;;;;;42.23;6.23;;;;;;;;;;5092547;28;20245;-88
2024/04/03 06:16:55;;;;;;;35.10;5.63;;;;;;;;;;5093410;28;20563;-88
2024/04/03 06:19:21;;;;;;;35.43;6.07;;;;;;;;;;5093345;28;20203;-88
2024/04/03 06:21:49;;;;;;;43.30;6.67;;;;;;;;;;5093577;28;20244;-88
2024/04/03 06:24:15;;;;;;;34.10;4.83;;;;;;;;;;5093621;28;20194;-82
2024/04/03 06:26:42;;;;;;;33.30;5.33;;;;;;;;;;5093563;28;20226;-88
2024/04/03 06:29:09;;;;;;;37.40;5.67;;;;;;;;;;5093692;28;20222;-87
2024/04/03 06:31:38;;;;;;;36.87;5.93;;;;;;;;;;5092372;28;20286;-87
2024/04/03 06:34:04;;;;;;;35.47;5.93;;;;;;;;;;5093369;28;20620;-87
2024/04/03 06:36:32;;;;;;;44.77;6.20;;;;;;;;;;5092448;28;20216;-87
2024/04/03 06:38:58;;;;;;;42.37;6.27;;;;;;;;;;5093137;28;20190;-88
2024/04/03 06:41:26;;;;;;;30.90;5.07;;;;;;;;;;5093432;28;20205;-87
2024/04/03 06:43:53;;;;;;;31.50;5.53;;;;;;;;;;5093318;28;20202;-88
2024/04/03 06:46:20;;;;;;;34.47;5.30;;;;;;;;;;5093601;28;20251;-89
2024/04/03 06:48:49;;;;;;;32.43;5.33;;;;;;;;;;5094189;28;20210;-88
2024/04/03 06:51:15;;;;;;;33.93;5.00;;;;;;;;;;5093010;28;20229;-88
2024/04/03 06:53:42;;;;;;;26.40;4.83;;;;;;;;;;5092937;28;20198;-86
2024/04/03 06:56:09;;;;;;;33.53;5.03;;;;;;;;;;5092676;28;20229;-88
2024/04/03 06:58:40;;;;;;;30.77;4.97;;;;;;;;;;5092210;28;20410;-88
2024/04/03 07:01:06;;;;;;;29.50;4.27;;;;;;;;;;5074155;28;20203;-88
2024/04/03 07:03:34;;;;;;;26.90;4.67;;;;;;;;;;5087124;28;20205;-88
2024/04/03 07:06:02;;;;;;;26.03;4.37;;;;;;;;;;5072747;28;20623;-88
2024/04/03 07:08:29;;;;;;;23.97;3.87;;;;;;;;;;5083155;28;20658;-86
2024/04/03 07:10:55;;;;;;;23.50;4.17;;;;;;;;;;5092719;28;20222;-89
2024/04/03 07:13:23;;;;;;;17.00;4.10;;;;;;;;;;5093390;28;20697;-85
2024/04/03 07:15:49;;;;;;;21.20;3.57;;;;;;;;;;5090836;28;20754;-86
2024/04/03 07:18:17;;;;;;;21.73;4.50;;;;;;;;;;5092176;28;20203;-86
2024/04/03 07:20:52;;;;;;;19.67;4.17;;;;;;;;;;5092177;28;20194;-86
2024/04/03 07:23:25;;;;;;;21.37;3.73;;;;;;;;;;5092401;28;20194;-87
2024/04/03 07:25:52;;;;;;;26.17;4.43;;;;;;;;;;5092256;28;20234;-85
2024/04/03 07:28:19;;;;;;;21.50;4.30;;;;;;;;;;5092071;28;20226;-86
2024/04/03 07:30:45;;;;;;;23.67;3.83;;;;;;;;;;5092065;28;20217;-86
2024/04/03 07:33:12;;;;;;;21.40;3.87;;;;;;;;;;5091956;28;20198;-87
2024/04/03 07:35:39;;;;;;;22.83;4.43;;;;;;;;;;5091608;28;20576;-85
2024/04/03 07:38:06;;;;;;;19.77;4.10;;;;;;;;;;5092083;28;20290;-86
2024/04/03 07:40:35;;;;;;;18.73;4.10;;;;;;;;;;5091646;28;20202;-86
2024/04/03 07:43:02;;;;;;;20.13;4.27;;;;;;;;;;5091833;28;20640;-86
2024/04/03 07:45:28;;;;;;;23.07;4.30;;;;;;;;;;5092012;28;20556;-85
2024/04/03 07:47:57;;;;;;;25.97;4.63;;;;;;;;;;5091612;28;20244;-86
2024/04/03 07:50:24;;;;;;;23.17;4.10;;;;;;;;;;5094899;28;20247;-86
2024/04/03 07:52:51;;;;;;;22.73;4.57;;;;;;;;;;5095949;28;20191;-87
2024/04/03 07:55:17;;;;;;;23.27;4.80;;;;;;;;;;5095455;28;20214;-87
2024/04/03 07:57:46;;;;;;;24.93;4.97;;;;;;;;;;5095648;28;20256;-86
2024/04/03 08:00:12;;;;;;;23.97;4.60;;;;;;;;;;5095458;28;20686;-86
2024/04/03 08:02:41;;;;;;;22.20;4.40;;;;;;;;;;5095627;28;20773;-84
2024/04/03 08:05:08;;;;;;;28.50;4.57;;;;;;;;;;5095489;28;20281;-85
2024/04/03 08:07:35;;;;;;;22.07;4.87;;;;;;;;;;5095973;28;20251;-85
2024/04/03 08:10:02;;;;;;;19.73;4.47;;;;;;;;;;5096018;28;20244;-87
2024/04/03 08:12:29;;;;;;;17.07;4.00;;;;;;;;;;5096422;28;20981;-86
2024/04/03 08:14:58;;;;;;;19.30;3.90;;;;;;;;;;5095961;28;20214;-86
2024/04/03 08:17:25;;;;;;;28.23;3.70;;;;;;;;;;5096057;28;20303;-88
2024/04/03 08:19:52;;;;;;;20.33;4.13;;;;;;;;;;5095690;28;20247;-87
2024/04/03 08:22:20;;;;;;;18.47;3.70;;;;;;;;;;5096081;28;20202;-87
2024/04/03 08:24:47;;;;;;;12.90;3.13;;;;;;;;;;5095936;28;20322;-86
2024/04/03 08:27:14;;;;;;;19.27;4.18;;;;;;;;;;5094550;28;20202;-87
2024/04/03 08:29:42;;;;;;;18.40;3.42;;;;;;;;;;5095673;28;20222;-87
2024/04/03 08:32:11;;;;;;;16.10;3.22;;;;;;;;;;5095664;28;20210;-88
2024/04/03 08:34:37;;;;;;;10.73;3.55;;;;;;;;;;5095349;28;20230;-87
2024/04/03 08:37:05;;;;;;;14.65;3.00;;;;;;;;;;5095521;28;20282;-87
2024/04/03 08:39:31;;;;;;;11.52;2.40;;;;;;;;;;5095293;28;20205;-86
2024/04/03 08:42:00;;;;;;;12.10;2.80;;;;;;;;;;5095452;28;20285;-87
2024/04/03 08:44:27;;;;;;;12.33;2.80;;;;;;;;;;5095209;28;20958;-87
2024/04/03 08:46:55;;;;;;;12.43;2.43;;;;;;;;;;5095075;28;20234;-87
2024/04/03 08:49:24;;;;;;;8.77;1.93;;;;;;;;;;5094943;28;20670;-86
2024/04/03 08:51:59;;;;;;;8.80;2.03;;;;;;;;;;5095033;28;20677;-87
2024/04/03 08:54:26;;;;;;;6.73;1.50;;;;;;;;;;5095266;28;20190;-87
2024/04/03 08:56:54;;;;;;;8.93;2.00;;;;;;;;;;5095226;28;20198;-85
2024/04/03 08:59:20;;;;;;;8.73;1.70;;;;;;;;;;5094419;28;20201;-86
2024/04/03 09:01:48;;;;;;;4.60;1.40;;;;;;;;;;5094943;28;20586;-87
2024/04/03 09:04:16;;;;;;;5.37;1.43;;;;;;;;;;5094774;28;20285;-86
2024/04/03 09:06:45;;;;;;;2.93;1.03;;;;;;;;;;5094488;28;20202;-84
2024/04/03 09:09:18;;;;;;;4.70;1.00;;;;;;;;;;5094407;28;20278;-86
2024/04/03 09:11:47;;;;;;;2.57;0.70;;;;;;;;;;5094961;28;20289;-85
2024/04/03 09:14:19;;;;;;;2.53;0.88;;;;;;;;;;5094817;28;20234;-85
2024/04/03 09:16:47;;;;;;;3.22;0.77;;;;;;;;;;5094754;28;20262;-87
2024/04/03 09:19:13;;;;;;;1.45;0.80;;;;;;;;;;5094408;28;20199;-86
2024/04/03 09:21:40;;;;;;;4.28;0.90;;;;;;;;;;5094447;28;20198;-86
2024/04/03 09:24:09;;;;;;;1.38;0.55;;;;;;;;;;5094434;28;20233;-86
2024/04/03 09:26:36;;;;;;;3.78;0.50;;;;;;;;;;5094024;28;20264;-87
2024/04/03 09:29:03;;;;;;;3.03;0.70;;;;;;;;;;5092975;28;20228;-86
2024/04/03 09:31:30;;;;;;;2.85;0.70;;;;;;;;;;5093550;28;20209;-87
2024/04/03 09:33:56;;;;;;;1.90;0.60;;;;;;;;;;5094522;28;20693;-86
2024/04/03 09:36:24;;;;;;;1.30;0.30;;;;;;;;;;5094288;28;20305;-86
2024/04/03 09:38:50;;;;;;;2.03;0.52;;;;;;;;;;5094258;28;21255;-87
2024/04/03 09:41:20;;;;;;;1.25;0.40;;;;;;;;;;5094511;28;20237;-86
2024/04/03 09:43:47;;;;;;;2.15;0.50;;;;;;;;;;5094064;28;20285;-85
2024/04/03 09:46:15;;;;;;;1.02;0.32;;;;;;;;;;5093649;28;20224;-86
2024/04/03 09:48:41;;;;;;;2.20;0.30;;;;;;;;;;5094111;28;20228;-87
2024/04/03 09:51:10;;;;;;;2.20;0.32;;;;;;;;;;5094306;28;20198;-86
2024/04/03 09:53:37;;;;;;;1.52;0.30;;;;;;;;;;5094083;28;20201;-85
2024/04/03 09:56:04;;;;;;;2.40;0.40;;;;;;;;;;5093681;28;20309;-87
2024/04/03 09:58:37;;;;;;;3.42;0.63;;;;;;;;;;5093682;28;20275;-88
2024/04/03 10:01:05;;;;;;;2.17;0.35;;;;;;;;;;5093996;28;20209;-86
2024/04/03 10:03:34;;;;;;;2.05;0.40;;;;;;;;;;5093316;28;20281;-85
2024/04/03 10:06:02;;;;;;;2.70;0.35;;;;;;;;;;5093507;28;20655;-85
2024/04/03 10:08:34;;;;;;;1.55;0.35;;;;;;;;;;5093813;28;20260;-86
2024/04/03 10:11:05;;;;;;;1.13;0.30;;;;;;;;;;5092683;28;20230;-85
2024/04/03 10:13:32;;;;;;;1.48;0.50;;;;;;;;;;5092745;28;20256;-85
2024/04/03 10:16:02;;;;;;;0.95;0.20;;;;;;;;;;5092763;28;20726;-87
2024/04/03 10:18:28;;;;;;;2.72;0.40;;;;;;;;;;5092309;28;20264;-85
2024/04/03 10:20:57;;;;;;;0.65;0.20;;;;;;;;;;5092402;28;20202;-85
2024/04/03 10:23:24;;;;;;;2.13;0.50;;;;;;;;;;5092746;28;20319;-85
2024/04/03 10:25:52;;;;;;;1.42;0.30;;;;;;;;;;5093449;28;20230;-86
2024/04/03 10:28:18;;;;;;;1.38;0.40;;;;;;;;;;5093253;28;20244;-87
2024/04/03 10:30:46;;;;;;;1.38;0.40;;;;;;;;;;5092346;28;20685;-86
2024/04/03 10:33:14;;;;;;;1.88;0.75;;;;;;;;;;5092895;28;20255;-86
2024/04/03 10:35:42;;;;;;;1.80;0.50;;;;;;;;;;5092044;28;20253;-86
2024/04/03 10:38:09;;;;;;;1.70;0.68;;;;;;;;;;5093022;28;20289;-87
2024/04/03 10:40:37;;;;;;;3.33;0.50;;;;;;;;;;5093356;28;20204;-87
2024/04/03 10:43:03;;;;;;;2.50;0.60;;;;;;;;;;5093379;28;20244;-89
2024/04/03 10:45:30;;;;;;;2.50;0.90;;;;;;;;;;5093267;28;20561;-88
2024/04/03 10:47:56;;;;;;;1.83;0.80;;;;;;;;;;5093692;28;20557;-86
2024/04/03 10:50:25;;;;;;;2.95;0.80;;;;;;;;;;5093560;28;20202;-86
2024/04/03 10:52:52;;;;;;;0.85;0.50;;;;;;;;;;5093331;28;20268;-83
2024/04/03 10:55:20;;;;;;;2.38;0.52;;;;;;;;;;5092274;28;20222;-83
2024/04/03 10:57:47;;;;;;;1.38;0.50;;;;;;;;;;5092192;28;20217;-84
2024/04/03 11:00:15;;;;;;;1.10;0.60;;;;;;;;;;5091764;28;20206;-84
2024/04/03 11:02:45;;;;;;;1.45;0.60;;;;;;;;;;5092349;28;20259;-83
2024/04/03 11:05:14;;;;;;;2.03;0.57;;;;;;;;;;5089228;28;20237;-83
2024/04/03 11:07:42;;;;;;;4.25;0.77;;;;;;;;;;5089878;28;20209;-83
2024/04/03 11:10:11;;;;;;;1.23;0.55;;;;;;;;;;5090942;28;20198;-83
2024/04/03 11:12:38;;;;;;;1.38;0.50;;;;;;;;;;5098032;28;20246;-83
2024/04/03 11:15:07;;;;;;;2.65;0.50;;;;;;;;;;5087898;28;20311;-83
2024/04/03 11:17:34;;;;;;;2.17;0.60;;;;;;;;;;4736469;28;10000383;-82
2024/04/03 11:20:01;;;;;;;1.90;0.60;;;;;;;;;;5088064;28;20194;-83
2024/04/03 11:22:28;;;;;;;2.75;0.80;;;;;;;;;;5087885;28;20248;-83
2024/04/03 11:24:56;;;;;;;1.58;0.77;;;;;;;;;;5087993;28;20241;-84
2024/04/03 11:27:23;;;;;;;2.13;0.60;;;;;;;;;;5085371;28;20751;-84
2024/04/03 11:29:51;;;;;;;2.33;1.00;;;;;;;;;;5088590;28;20199;-85
2024/04/03 11:32:17;;;;;;;1.38;0.80;;;;;;;;;;5087517;28;20199;-85
2024/04/03 11:34:45;;;;;;;2.05;0.90;;;;;;;;;;5087794;28;20726;-84
2024/04/03 11:37:11;;;;;;;1.70;0.88;;;;;;;;;;5081730;28;20753;-86
2024/04/03 11:39:38;;;;;;;2.03;0.68;;;;;;;;;;5088519;28;20202;-83
2024/04/03 11:42:07;;;;;;;2.22;1.05;;;;;;;;;;5085790;28;20203;-85
2024/04/03 11:44:34;;;;;;;2.35;1.20;;;;;;;;;;5087774;28;20628;-84
2024/04/03 11:47:00;;;;;;;2.40;1.20;;;;;;;;;;5088759;28;20214;-84
2024/04/03 11:49:28;;;;;;;1.08;0.60;;;;;;;;;;5073223;28;20727;-84
2024/04/03 11:51:54;;;;;;;2.67;1.00;;;;;;;;;;5067742;28;20199;-84
2024/04/03 11:54:22;;;;;;;1.77;0.70;;;;;;;;;;5072122;28;20264;-85
2024/04/03 11:56:48;;;;;;;1.67;0.50;;;;;;;;;;5079092;28;20238;-85
2024/04/03 11:59:17;;;;;;;1.98;0.60;;;;;;;;;;5090084;28;20202;-85
2024/04/03 12:01:43;;;;;;;3.20;0.80;;;;;;;;;;5088591;28;20218;-85
2024/04/03 12:04:13;;;;;;;2.15;0.65;;;;;;;;;;5079757;28;20635;-82
2024/04/03 12:06:40;;;;;;;3.20;0.70;;;;;;;;;;5089168;28;20259;-83
2024/04/03 12:09:07;;;;;;;2.47;0.90;;;;;;;;;;5089982;28;20198;-83
2024/04/03 12:11:34;;;;;;;3.13;0.60;;;;;;;;;;5087224;28;20202;-83
2024/04/03 12:14:02;;;;;;;3.67;0.68;;;;;;;;;;5088922;28;20682;-83
2024/04/03 12:16:30;;;;;;;2.33;0.50;;;;;;;;;;5081818;28;20219;-83
2024/04/03 12:19:13;;;;;;;2.55;0.90;;;;;;;;;;5083934;28;20199;-83
2024/04/03 12:21:39;;;;;;;1.42;0.70;;;;;;;;;;5089464;28;20286;-83
2024/04/03 12:24:07;;;;;;;1.98;0.82;;;;;;;;;;5087330;28;20198;-82
2024/04/03 12:26:33;;;;;;;2.50;0.90;;;;;;;;;;5082875;28;20230;-82
2024/04/03 12:29:00;;;;;;;2.33;0.88;;;;;;;;;;5090815;28;20194;-83
2024/04/03 12:31:26;;;;;;;4.18;1.13;;;;;;;;;;5090578;28;20203;-82
2024/04/03 12:33:56;;;;;;;3.17;1.08;;;;;;;;;;5090545;28;20198;-82
2024/04/03 12:36:23;;;;;;;1.13;0.55;;;;;;;;;;5094123;28;20726;-82
2024/04/03 12:38:53;;;;;;;3.42;0.80;;;;;;;;;;5107933;28;20649;-84
2024/04/03 12:41:21;;;;;;;2.20;0.75;;;;;;;;;;5099175;28;20233;-83
2024/04/03 12:43:48;;;;;;;2.38;0.60;;;;;;;;;;5093981;28;20194;-84
2024/04/03 12:46:15;;;;;;;2.65;0.80;;;;;;;;;;5094256;28;20203;-82
2024/04/03 12:48:42;;;;;;;3.00;0.70;;;;;;;;;;5094584;28;20201;-83
2024/04/03 12:51:10;;;;;;;2.83;0.70;;;;;;;;;;5093662;28;20233;-83
2024/04/03 12:53:38;;;;;;;3.53;1.00;;;;;;;;;;5094524;28;20553;-83
2024/04/03 12:56:04;;;;;;;2.33;0.77;;;;;;;;;;5098992;28;20702;-83
2024/04/03 12:58:32;;;;;;;5.43;1.02;;;;;;;;;;5093113;28;20551;-84
2024/04/03 13:01:00;;;;;;;2.95;0.90;;;;;;;;;;5091836;28;20732;-83
2024/04/03 13:03:29;;;;;;;3.95;1.20;;;;;;;;;;5089937;28;20198;-82
2024/04/03 13:05:55;;;;;;;2.25;1.05;;;;;;;;;;5099537;28;20214;-82
2024/04/03 13:08:24;;;;;;;6.30;1.20;;;;;;;;;;5086909;28;20197;-83
2024/04/03 13:10:50;;;;;;;2.47;0.65;;;;;;;;;;5092881;28;20248;-83
2024/04/03 13:13:17;;;;;;;3.88;0.95;;;;;;;;;;5093592;28;20198;-83
2024/04/03 13:15:44;;;;;;;5.22;0.93;;;;;;;;;;5094053;28;20218;-83
2024/04/03 13:18:13;;;;;;;5.50;1.30;;;;;;;;;;5093354;28;20209;-83
2024/04/03 13:20:39;;;;;;;3.67;0.90;;;;;;;;;;5093273;28;20674;-83
2024/04/03 13:23:06;;;;;;;3.70;1.30;;;;;;;;;;5092913;28;20195;-83
2024/04/03 13:25:34;;;;;;;3.78;1.13;;;;;;;;;;5092736;28;20876;-83
2024/04/03 13:28:02;;;;;;;2.92;1.13;;;;;;;;;;5087991;28;20214;-83
2024/04/03 13:30:28;;;;;;;3.65;0.73;;;;;;;;;;5112555;28;20274;-82
2024/04/03 13:32:56;;;;;;;4.55;1.08;;;;;;;;;;5113568;28;20669;-83
2024/04/03 13:35:22;;;;;;;2.33;0.73;;;;;;;;;;5093573;28;20202;-83
2024/04/03 13:37:49;;;;;;;3.42;0.65;;;;;;;;;;5093321;28;20198;-84
2024/04/03 13:40:16;;;;;;;3.83;0.52;;;;;;;;;;5092103;28;20565;-82
2024/04/03 13:42:45;;;;;;;2.63;0.70;;;;;;;;;;5093054;28;20232;-83
2024/04/03 13:45:12;;;;;;;1.80;0.57;;;;;;;;;;5093664;28;20198;-83
2024/04/03 13:47:39;;;;;;;2.85;0.50;;;;;;;;;;5093397;28;20244;-83
2024/04/03 13:50:05;;;;;;;1.58;0.60;;;;;;;;;;5095674;28;20198;-82
2024/04/03 13:52:33;;;;;;;2.65;0.70;;;;;;;;;;5092507;28;20663;-84
2024/04/03 13:54:59;;;;;;;2.50;0.60;;;;;;;;;;5089805;28;20203;-84
2024/04/03 13:57:26;;;;;;;2.85;0.50;;;;;;;;;;5093239;28;20230;-83
2024/04/03 13:59:54;;;;;;;3.20;0.50;;;;;;;;;;5094866;28;20242;-83
2024/04/03 14:02:21;;;;;;;3.38;0.60;;;;;;;;;;5092542;28;20618;-84
2024/04/03 14:04:47;;;;;;;3.25;0.50;;;;;;;;;;5092573;28;20190;-84
2024/04/03 14:07:15;;;;;;;2.22;0.52;;;;;;;;;;5092217;28;20199;-83
2024/04/03 14:09:41;;;;;;;1.50;0.63;;;;;;;;;;5092220;28;20218;-89
2024/04/03 14:12:09;;;;;;;3.60;0.98;;;;;;;;;;5094378;28;20197;-85
2024/04/03 14:14:36;;;;;;;4.15;0.82;;;;;;;;;;5092098;28;20202;-84
2024/04/03 14:17:05;;;;;;;2.28;0.75;;;;;;;;;;5092140;28;20225;-84
2024/04/03 14:19:32;;;;;;;4.22;0.80;;;;;;;;;;5092174;28;20194;-82
2024/04/03 14:21:59;;;;;;;2.05;0.45;;;;;;;;;;5091522;28;20222;-83
2024/04/03 14:24:26;;;;;;;2.65;0.50;;;;;;;;;;5091778;28;20574;-84
2024/04/03 14:26:53;;;;;;;3.67;0.80;;;;;;;;;;5092071;28;20190;-84
2024/04/03 14:29:19;;;;;;;3.45;0.55;;;;;;;;;;5091688;28;20194;-83
2024/04/03 14:31:47;;;;;;;3.55;1.08;;;;;;;;;;5091353;28;20195;-83
2024/04/03 14:34:17;;;;;;;3.38;1.35;;;;;;;;;;5088708;28;20209;-84
2024/04/03 14:36:46;;;;;;;3.90;0.95;;;;;;;;;;5090958;28;20228;-83
2024/04/03 14:39:14;;;;;;;2.38;0.98;;;;;;;;;;5080284;28;20206;-84
2024/04/03 14:41:41;;;;;;;4.10;1.00;;;;;;;;;;5091852;28;20226;-83
2024/04/03 14:44:08;;;;;;;2.83;0.90;;;;;;;;;;5092051;28;20568;-84